Time;durP1;ratioP1;P1;durP2;ratioP2;P2;SDS_P1;SDS_P2;PMS_P1;PMS_P2;Temp;Humidity;BMP_temperature;BMP_pressure;BME280_temperature;BME280_humidity;BME280_pressure;Samples;Min_cycle;Max_cycle;Signal;HPM_P1;HPM_P2
2022/06/12 00:01:58;;;;;;;3.13;1.50;;;25.40;41.20;;;;;;6183091;28;20030;-69
2022/06/12 00:04:59;;;;;;;3.58;1.50;;;25.40;41.20;;;;;;6194480;28;20050;-69
2022/06/12 00:08:00;;;;;;;2.33;1.67;;;25.40;41.00;;;;;;6192574;28;20022;-69
2022/06/12 00:11:05;;;;;;;3.05;1.25;;;25.40;40.90;;;;;;6204575;28;20171;-69
2022/06/12 00:14:07;;;;;;;2.72;1.50;;;25.30;40.90;;;;;;6185515;28;20216;-69
2022/06/12 00:17:08;;;;;;;3.97;1.23;;;25.30;40.90;;;;;;6199217;28;20041;-69
2022/06/12 00:20:13;;;;;;;4.00;1.70;;;25.30;41.00;;;;;;6185997;28;20042;-69
2022/06/12 00:23:16;;;;;;;2.97;1.80;;;25.20;41.10;;;;;;6185778;28;20030;-71
2022/06/12 00:26:24;;;;;;;3.42;2.20;;;25.20;41.60;;;;;;6204161;28;20026;-69
2022/06/12 00:29:32;;;;;;;6.35;1.70;;;25.10;41.80;;;;;;6197678;28;20035;-69
2022/06/12 00:32:33;;;;;;;1.58;1.30;;;25.10;42.00;;;;;;6201031;28;20035;-70
2022/06/12 00:35:35;;;;;;;4.63;1.55;;;25.00;41.90;;;;;;6203777;28;20621;-70
2022/06/12 00:38:39;;;;;;;1.63;1.27;;;25.00;41.80;;;;;;6183950;28;20035;-69
2022/06/12 00:41:41;;;;;;;3.97;1.65;;;25.00;42.00;;;;;;6185699;28;20456;-70
2022/06/12 00:44:42;;;;;;;7.40;1.70;;;25.00;42.10;;;;;;6186157;28;20090;-69
2022/06/12 00:47:43;;;;;;;3.20;1.42;;;25.00;42.40;;;;;;6203493;28;20064;-69
2022/06/12 00:50:56;;;;;;;5.32;2.13;;;25.00;42.50;;;;;;6185077;28;20034;-70
2022/06/12 00:53:59;;;;;;;9.13;1.60;;;24.90;42.50;;;;;;6198002;28;20328;-69
2022/06/12 00:57:01;;;;;;;5.47;1.77;;;24.90;42.40;;;;;;6185960;28;20026;-68
2022/06/12 01:00:11;;;;;;;3.33;2.13;;;24.90;42.40;;;;;;6185906;28;20035;-69
2022/06/12 01:03:12;;;;;;;1.73;1.35;;;24.90;42.60;;;;;;6167075;28;20030;-70
2022/06/12 01:09:38;;;;;;;3.13;1.60;;;24.80;42.90;;;;;;6202083;28;20096;-71
2022/06/12 01:12:48;;;;;;;3.60;1.98;;;24.70;43.10;;;;;;6198320;28;20371;-68
2022/06/12 01:15:53;;;;;;;4.40;1.83;;;24.60;43.40;;;;;;6183167;28;20053;-69
2022/06/12 01:18:56;;;;;;;3.13;1.88;;;24.60;43.50;;;;;;6199480;28;20503;-68
2022/06/12 01:22:08;;;;;;;2.35;1.65;;;24.50;43.70;;;;;;6164449;28;20459;-68
2022/06/12 01:25:33;;;;;;;2.15;1.63;;;24.50;43.90;;;;;;6200279;28;20027;-68
2022/06/12 01:28:59;;;;;;;6.80;1.75;;;24.50;43.90;;;;;;6186284;28;20034;-68
2022/06/12 01:32:13;;;;;;;10.15;4.22;;;24.40;44.00;;;;;;6180815;28;20034;-68
2022/06/12 01:35:29;;;;;;;8.00;4.53;;;24.40;44.60;;;;;;6197568;28;20030;-69
2022/06/12 01:38:40;;;;;;;7.55;3.33;;;24.40;44.50;;;;;;6185457;28;20046;-71
2022/06/12 01:42:16;;;;;;;3.10;2.13;;;24.30;44.70;;;;;;6185071;28;20027;-69
2022/06/12 01:45:30;;;;;;;5.30;2.10;;;24.20;44.90;;;;;;6182905;28;20102;-69
2022/06/12 01:48:43;;;;;;;2.88;1.70;;;24.20;44.80;;;;;;6167421;28;20122;-69
2022/06/12 01:52:15;;;;;;;2.30;1.77;;;24.20;44.80;;;;;;6183416;28;20998;-69
2022/06/12 01:55:36;;;;;;;2.95;1.50;;;24.20;44.80;;;;;;6166186;28;20045;-69
2022/06/12 01:58:37;;;;;;;4.53;1.70;;;24.20;44.80;;;;;;6196476;28;20030;-69
2022/06/12 02:01:48;;;;;;;4.15;1.65;;;24.10;44.90;;;;;;6165167;28;20042;-69
2022/06/12 02:05:13;;;;;;;2.55;1.50;;;24.10;45.00;;;;;;6199641;28;20034;-69
2022/06/12 02:08:21;;;;;;;4.35;1.70;;;24.00;45.10;;;;;;6198289;28;20033;-69
2022/06/12 02:14:58;;;;;;;2.83;1.42;;;23.90;45.50;;;;;;6181328;28;20120;-69
2022/06/12 02:18:08;;;;;;;4.75;1.65;;;23.90;45.60;;;;;;6183375;28;20153;-69
2022/06/12 02:21:23;;;;;;;3.30;1.55;;;23.80;45.60;;;;;;6195929;28;20371;-69
2022/06/12 02:24:34;;;;;;;1.80;1.40;;;23.80;45.70;;;;;;6197822;28;20033;-69
2022/06/12 02:27:47;;;;;;;2.92;1.45;;;23.70;45.60;;;;;;6166069;28;20166;-69
2022/06/12 02:30:52;;;;;;;2.33;1.60;;;23.70;45.90;;;;;;6183474;28;20050;-69
2022/06/12 02:34:02;;;;;;;3.38;1.55;;;23.70;46.00;;;;;;6189252;28;20033;-69
2022/06/12 02:37:11;;;;;;;3.97;1.50;;;23.60;46.10;;;;;;6199062;28;20039;-69
2022/06/12 02:40:27;;;;;;;2.20;1.40;;;23.60;46.30;;;;;;6181050;28;20162;-69
2022/06/12 02:43:31;;;;;;;2.78;1.45;;;23.50;46.50;;;;;;6182739;28;20038;-69
2022/06/12 02:46:44;;;;;;;2.58;1.52;;;23.50;46.70;;;;;;6183705;28;20085;-69
2022/06/12 02:49:47;;;;;;;2.53;1.75;;;23.50;46.70;;;;;;6179894;28;20035;-69
2022/06/12 02:53:17;;;;;;;1.65;1.40;;;23.40;46.70;;;;;;6194021;28;20105;-68
2022/06/12 02:56:38;;;;;;;1.70;1.40;;;23.40;46.80;;;;;;6199259;28;20483;-68
2022/06/12 02:59:48;;;;;;;2.30;1.80;;;23.40;46.80;;;;;;6131166;28;20047;-68
2022/06/12 03:03:21;;;;;;;4.18;1.40;;;23.40;46.80;;;;;;6149366;28;20110;-68
2022/06/12 03:06:27;;;;;;;1.83;1.45;;;23.40;46.90;;;;;;6149385;28;20090;-70
2022/06/12 03:09:28;;;;;;;7.00;2.03;;;23.40;47.00;;;;;;6150731;28;20039;-69
2022/06/12 03:12:29;;;;;;;2.33;1.45;;;23.30;47.00;;;;;;6118058;28;20384;-69
2022/06/12 03:15:57;;;;;;;4.45;1.90;;;23.30;47.00;;;;;;6136912;28;20055;-69
2022/06/12 03:19:28;;;;;;;3.45;1.70;;;23.30;47.10;;;;;;6109848;28;20385;-69
2022/06/12 03:22:45;;;;;;;2.65;1.70;;;23.30;47.10;;;;;;6055537;29;20064;-69
2022/06/12 03:25:53;;;;;;;4.68;1.80;;;23.30;47.20;;;;;;6055839;29;20037;-69
2022/06/12 03:29:04;;;;;;;3.53;1.52;;;23.30;47.40;;;;;;6045444;29;20089;-69
2022/06/12 03:32:18;;;;;;;1.88;1.48;;;23.30;47.50;;;;;;6058083;29;20049;-69
2022/06/12 03:35:54;;;;;;;10.75;1.75;;;23.20;47.60;;;;;;6058274;29;20057;-69
2022/06/12 03:39:05;;;;;;;8.68;1.60;;;23.20;47.70;;;;;;6076279;29;20045;-69
2022/06/12 03:42:18;;;;;;;2.40;1.45;;;23.10;47.70;;;;;;6070204;29;20085;-68
2022/06/12 03:45:28;;;;;;;2.08;1.23;;;23.10;47.80;;;;;;6044936;29;20044;-68
2022/06/12 03:48:41;;;;;;;2.08;1.48;;;23.10;47.90;;;;;;6078546;29;20573;-69
2022/06/12 03:52:01;;;;;;;4.88;1.55;;;23.00;47.90;;;;;;6062583;29;20124;-69
2022/06/12 03:55:11;;;;;;;1.80;1.27;;;23.00;47.90;;;;;;6058793;29;20386;-68
2022/06/12 03:58:17;;;;;;;6.10;1.67;;;23.00;48.00;;;;;;6064976;28;20047;-69
2022/06/12 04:01:19;;;;;;;1.35;1.10;;;23.00;48.20;;;;;;6197857;28;20026;-68
2022/06/12 04:04:24;;;;;;;2.55;1.50;;;23.00;48.40;;;;;;6185415;28;20058;-70
2022/06/12 04:07:28;;;;;;;3.05;1.70;;;22.90;48.30;;;;;;6182698;28;20045;-69
2022/06/12 04:10:34;;;;;;;3.38;1.80;;;22.90;48.30;;;;;;6181924;28;20034;-69
2022/06/12 04:13:37;;;;;;;2.50;1.42;;;22.90;48.20;;;;;;6204534;28;20105;-68
2022/06/12 04:16:59;;;;;;;4.30;1.67;;;22.90;48.40;;;;;;6198420;28;20031;-68
2022/06/12 04:20:00;;;;;;;6.55;1.70;;;22.90;48.60;;;;;;6196242;28;20030;-69
2022/06/12 04:23:12;;;;;;;3.85;1.40;;;22.90;48.60;;;;;;6208777;28;20034;-69
2022/06/12 04:26:49;;;;;;;4.25;1.60;;;22.80;48.60;;;;;;6182110;28;20113;-68
2022/06/12 04:30:21;;;;;;;6.15;1.88;;;22.80;48.70;;;;;;6178128;28;20039;-70
2022/06/12 04:33:39;;;;;;;2.40;1.60;;;22.80;48.70;;;;;;6198796;28;20026;-68
2022/06/12 04:36:42;;;;;;;2.00;1.38;;;22.80;48.70;;;;;;6181432;28;20050;-68
2022/06/12 04:39:43;;;;;;;4.28;1.55;;;22.80;48.90;;;;;;6181025;28;20030;-68
2022/06/12 04:42:44;;;;;;;2.53;1.65;;;22.70;48.80;;;;;;6196020;28;20097;-68
2022/06/12 04:45:46;;;;;;;3.55;1.60;;;22.80;48.80;;;;;;6177880;28;20403;-69
2022/06/12 04:48:49;;;;;;;1.88;1.35;;;22.80;48.90;;;;;;6175194;28;20062;-69
2022/06/12 04:51:53;;;;;;;4.63;1.80;;;22.80;49.00;;;;;;6178308;28;20085;-69
2022/06/12 04:54:54;;;;;;;3.67;1.70;;;22.80;49.00;;;;;;6182205;28;20495;-69
2022/06/12 04:57:55;;;;;;;3.40;1.40;;;22.80;49.00;;;;;;6194252;28;20133;-69
2022/06/12 05:00:56;;;;;;;2.35;1.50;;;22.80;48.90;;;;;;6196344;28;20118;-69
2022/06/12 05:03:57;;;;;;;2.30;1.60;;;22.80;48.80;;;;;;6179103;28;20022;-69
2022/06/12 05:06:59;;;;;;;2.67;1.40;;;22.80;48.60;;;;;;6203221;28;20105;-69
2022/06/12 05:10:00;;;;;;;2.78;1.45;;;22.80;48.50;;;;;;6181108;28;20034;-69
2022/06/12 05:13:02;;;;;;;2.90;1.70;;;22.90;48.40;;;;;;6199719;28;20089;-69
2022/06/12 05:16:03;;;;;;;3.65;1.98;;;22.90;48.40;;;;;;6200643;28;20069;-73
2022/06/12 05:19:06;;;;;;;5.53;1.88;;;23.00;48.50;;;;;;6183377;28;20034;-69
2022/06/12 05:22:09;;;;;;;4.47;2.10;;;22.90;48.70;;;;;;6185871;28;20030;-69
2022/06/12 05:25:10;;;;;;;2.75;1.83;;;22.90;48.90;;;;;;6184852;28;20043;-69
2022/06/12 05:28:14;;;;;;;2.50;1.80;;;22.80;49.00;;;;;;6177491;28;20086;-69
2022/06/12 05:31:16;;;;;;;2.55;1.60;;;22.80;49.30;;;;;;6197962;28;20117;-69
2022/06/12 05:34:18;;;;;;;7.50;1.70;;;22.80;49.30;;;;;;6198943;28;20049;-69
2022/06/12 05:37:20;;;;;;;3.08;1.70;;;22.80;50.00;;;;;;6197624;28;20359;-69
2022/06/12 05:40:25;;;;;;;6.32;1.98;;;22.80;49.40;;;;;;6195786;28;20041;-70
2022/06/12 05:43:25;;;;;;;6.70;1.60;;;22.80;49.30;;;;;;6202117;28;20071;-68
2022/06/12 05:46:26;;;;;;;2.22;1.55;;;22.80;49.10;;;;;;6167456;28;20044;-67
2022/06/12 05:49:28;;;;;;;1.67;1.50;;;22.80;48.90;;;;;;6169657;28;20427;-68
2022/06/12 05:52:29;;;;;;;2.85;1.80;;;23.00;48.90;;;;;;6174019;28;20444;-68
2022/06/12 05:55:30;;;;;;;1.73;1.40;;;23.00;48.70;;;;;;6191168;28;20034;-68
2022/06/12 05:58:31;;;;;;;2.00;1.52;;;23.10;48.50;;;;;;6179015;28;20034;-68
2022/06/12 06:01:33;;;;;;;4.65;1.20;;;23.30;48.30;;;;;;6184999;28;20712;-69
2022/06/12 06:04:34;;;;;;;4.47;1.55;;;23.40;48.00;;;;;;6167099;28;20077;-68
2022/06/12 06:07:37;;;;;;;6.25;1.98;;;23.50;47.80;;;;;;6178792;28;20034;-69
2022/06/12 06:10:39;;;;;;;7.30;1.58;;;23.60;47.70;;;;;;6198035;28;20475;-69
2022/06/12 06:13:40;;;;;;;2.65;1.50;;;23.70;47.50;;;;;;6197938;28;20057;-69
2022/06/12 06:16:41;;;;;;;1.45;1.35;;;23.80;47.20;;;;;;6207448;28;20038;-69
2022/06/12 06:19:42;;;;;;;3.20;1.58;;;23.90;47.00;;;;;;6162802;28;20034;-69
2022/06/12 06:22:43;;;;;;;2.00;1.38;;;24.00;46.80;;;;;;6197554;28;20033;-70
2022/06/12 06:25:44;;;;;;;3.00;1.40;;;24.10;46.70;;;;;;6179994;28;20026;-70
2022/06/12 06:28:45;;;;;;;2.80;1.38;;;24.20;46.50;;;;;;6197987;28;20033;-69
2022/06/12 06:31:46;;;;;;;2.08;1.63;;;24.30;46.30;;;;;;6198581;28;20038;-69
2022/06/12 06:34:47;;;;;;;4.88;1.70;;;24.40;46.10;;;;;;6181016;28;20050;-70
2022/06/12 06:37:50;;;;;;;3.05;1.52;;;24.50;45.80;;;;;;6182156;28;20111;-69
2022/06/12 06:40:51;;;;;;;4.82;1.67;;;24.70;45.50;;;;;;6176351;28;20110;-70
2022/06/12 06:47:12;;;;;;;3.10;1.40;;;25.00;44.90;;;;;;6200432;28;20026;-70
2022/06/12 06:50:15;;;;;;;4.38;1.80;;;25.10;44.70;;;;;;6196472;28;20022;-71
2022/06/12 06:53:17;;;;;;;2.90;1.60;;;25.30;44.60;;;;;;6177727;28;20104;-69
2022/06/12 06:56:19;;;;;;;3.72;1.60;;;25.40;44.30;;;;;;6180577;28;20030;-70
2022/06/12 06:59:20;;;;;;;4.53;2.00;;;25.50;44.00;;;;;;6163439;28;20146;-69
2022/06/12 07:02:21;;;;;;;5.18;1.60;;;25.50;43.80;;;;;;6202684;28;20030;-69
2022/06/12 07:05:22;;;;;;;31.38;2.15;;;25.70;43.50;;;;;;6198431;28;20113;-70
2022/06/12 07:08:25;;;;;;;2.38;1.70;;;25.80;43.20;;;;;;6198328;28;20029;-69
2022/06/12 07:11:27;;;;;;;3.42;1.70;;;26.00;43.10;;;;;;6193618;28;20446;-69
2022/06/12 07:14:29;;;;;;;2.35;1.50;;;26.20;42.70;;;;;;6204249;28;20137;-69
2022/06/12 07:17:30;;;;;;;5.35;1.85;;;26.40;42.30;;;;;;6182702;28;20041;-69
2022/06/12 07:20:35;;;;;;;1.88;1.30;;;26.50;42.00;;;;;;6198080;28;20106;-69
2022/06/12 07:23:36;;;;;;;2.78;1.40;;;26.60;41.60;;;;;;6200751;28;20023;-69
2022/06/12 07:26:41;;;;;;;5.93;1.85;;;26.60;41.20;;;;;;6197702;28;20157;-70
2022/06/12 07:29:41;;;;;;;2.95;1.20;;;26.60;41.10;;;;;;6198287;28;20030;-69
2022/06/12 07:32:43;;;;;;;5.20;1.30;;;26.60;40.90;;;;;;6183775;28;20113;-69
2022/06/12 07:35:45;;;;;;;3.50;1.58;;;26.60;40.90;;;;;;6195157;28;20118;-69
2022/06/12 07:38:49;;;;;;;4.57;1.20;;;26.60;40.80;;;;;;6165855;28;20364;-71
2022/06/12 07:41:52;;;;;;;4.63;1.60;;;26.80;40.70;;;;;;6168868;28;20396;-70
2022/06/12 07:44:53;;;;;;;2.53;1.42;;;26.90;40.40;;;;;;6177242;28;20463;-70
2022/06/12 07:47:54;;;;;;;4.22;1.52;;;27.10;40.00;;;;;;6175774;28;20030;-71
2022/06/12 07:50:55;;;;;;;4.03;1.20;;;27.30;39.70;;;;;;6179353;28;20061;-70
2022/06/12 07:53:56;;;;;;;5.65;1.55;;;27.40;39.40;;;;;;6179770;28;20027;-70
2022/06/12 07:56:57;;;;;;;2.67;1.52;;;27.50;39.20;;;;;;6180657;28;20052;-69
2022/06/12 07:59:58;;;;;;;5.10;1.48;;;27.60;39.20;;;;;;6182969;28;20352;-69
2022/06/12 08:03:00;;;;;;;3.53;1.83;;;27.80;39.00;;;;;;6197043;28;20019;-69
2022/06/12 08:06:01;;;;;;;1.83;1.40;;;27.90;38.80;;;;;;6199251;28;20414;-69
2022/06/12 08:09:05;;;;;;;1.83;1.15;;;28.10;38.60;;;;;;6166364;28;20042;-69
2022/06/12 08:12:09;;;;;;;6.15;1.48;;;28.20;38.40;;;;;;6163748;28;20053;-69
2022/06/12 08:15:17;;;;;;;3.03;1.60;;;28.30;37.80;;;;;;6143984;28;20057;-70
2022/06/12 08:18:20;;;;;;;1.73;1.10;;;28.40;37.70;;;;;;6175640;28;20037;-70
2022/06/12 08:21:23;;;;;;;2.00;1.42;;;28.50;36.80;;;;;;6148748;28;20494;-70
2022/06/12 08:24:24;;;;;;;4.00;1.67;;;28.70;36.50;;;;;;6172100;28;20093;-70
2022/06/12 08:27:26;;;;;;;2.20;1.10;;;28.90;35.80;;;;;;6155308;28;20023;-70
2022/06/12 08:30:28;;;;;;;2.03;1.42;;;29.00;35.40;;;;;;6163427;28;20023;-70
2022/06/12 08:33:29;;;;;;;3.85;1.50;;;29.20;35.20;;;;;;6151227;28;20061;-70
2022/06/12 08:36:32;;;;;;;3.63;1.40;;;29.30;34.90;;;;;;6171661;28;20373;-70
2022/06/12 08:39:33;;;;;;;2.55;1.60;;;29.40;34.40;;;;;;6158846;28;20409;-70
2022/06/12 08:42:49;;;;;;;2.90;1.38;;;29.30;34.30;;;;;;6174023;28;20094;-71
2022/06/12 08:45:51;;;;;;;1.85;1.02;;;29.30;34.00;;;;;;6158653;28;20165;-69
2022/06/12 08:48:58;;;;;;;2.58;1.27;;;29.50;33.70;;;;;;6143687;28;20448;-69
2022/06/12 08:52:29;;;;;;;1.40;1.10;;;29.50;33.30;;;;;;6174966;28;20112;-69
2022/06/12 08:55:41;;;;;;;1.95;1.20;;;29.50;33.50;;;;;;6173389;28;20098;-69
2022/06/12 08:59:12;;;;;;;5.53;1.65;;;29.50;33.70;;;;;;6175454;28;20031;-69
2022/06/12 09:02:29;;;;;;;3.67;1.40;;;29.40;34.00;;;;;;6155691;28;20041;-71
2022/06/12 09:05:49;;;;;;;1.40;1.30;;;29.40;34.20;;;;;;6143293;28;20093;-69
2022/06/12 09:09:21;;;;;;;6.22;3.75;;;29.30;34.50;;;;;;6159213;28;20030;-69
2022/06/12 09:12:46;;;;;;;1.80;1.60;;;29.30;34.70;;;;;;6099922;29;20043;-71
2022/06/12 09:16:01;;;;;;;8.18;4.15;;;29.40;35.00;;;;;;6145725;29;20595;-69
2022/06/12 09:19:18;;;;;;;5.10;2.42;;;29.50;35.20;;;;;;6148347;29;20035;-69
2022/06/12 09:22:30;;;;;;;3.95;2.40;;;29.50;35.30;;;;;;6119691;29;20076;-69
2022/06/12 09:25:54;;;;;;;3.70;2.10;;;29.60;35.40;;;;;;6152055;29;20019;-69
2022/06/12 09:29:21;;;;;;;2.60;1.80;;;29.60;35.10;;;;;;6149235;29;20377;-69
2022/06/12 09:32:26;;;;;;;3.95;1.80;;;29.70;35.00;;;;;;6146869;29;20062;-69
2022/06/12 09:36:02;;;;;;;2.08;1.50;;;29.70;34.90;;;;;;6135188;29;20046;-70
2022/06/12 09:39:06;;;;;;;1.92;1.60;;;29.90;34.90;;;;;;6149069;29;20038;-72
2022/06/12 09:42:18;;;;;;;2.60;1.40;;;30.00;34.40;;;;;;6150543;29;20486;-70
2022/06/12 09:45:36;;;;;;;3.17;1.30;;;30.10;34.20;;;;;;6148272;29;20354;-71
2022/06/12 09:49:16;;;;;;;4.07;1.30;;;30.20;34.00;;;;;;6162376;28;20042;-70
2022/06/12 09:52:50;;;;;;;1.25;1.15;;;30.40;33.70;;;;;;6127442;29;20354;-70
2022/06/12 09:56:05;;;;;;;6.47;1.38;;;30.50;33.30;;;;;;6106925;29;20036;-70
2022/06/12 09:59:34;;;;;;;2.63;1.25;;;30.50;32.90;;;;;;6125712;29;20034;-70
2022/06/12 10:02:45;;;;;;;3.95;1.13;;;30.60;32.50;;;;;;6127362;29;20047;-69
2022/06/12 10:06:08;;;;;;;1.45;1.10;;;30.70;32.00;;;;;;6127324;29;20036;-71
2022/06/12 10:09:35;;;;;;;3.17;1.40;;;30.80;31.90;;;;;;6127822;29;20035;-69
2022/06/12 10:12:41;;;;;;;5.32;1.77;;;30.80;31.80;;;;;;6109489;29;20424;-69
2022/06/12 10:15:50;;;;;;;1.55;1.00;;;30.90;31.30;;;;;;6126526;29;20054;-70
2022/06/12 10:19:16;;;;;;;1.77;1.08;;;31.00;31.30;;;;;;6110006;29;20051;-70
2022/06/12 10:22:22;;;;;;;1.75;1.10;;;31.20;31.00;;;;;;6126245;29;20042;-70
2022/06/12 10:25:33;;;;;;;3.17;1.00;;;31.30;30.30;;;;;;6129559;29;20435;-70
2022/06/12 10:28:36;;;;;;;1.48;1.08;;;31.40;30.10;;;;;;6141984;28;20441;-69
2022/06/12 10:31:59;;;;;;;2.22;1.38;;;31.40;30.00;;;;;;6173471;28;20057;-69
2022/06/12 10:35:17;;;;;;;3.15;2.20;;;31.50;30.00;;;;;;6143671;28;20045;-71
2022/06/12 10:38:21;;;;;;;1.20;1.10;;;31.60;29.90;;;;;;6152265;28;20085;-69
2022/06/12 10:41:26;;;;;;;2.45;1.60;;;31.70;29.70;;;;;;6173788;28;20019;-69
2022/06/12 10:44:36;;;;;;;7.25;1.27;;;31.90;29.80;;;;;;6140231;28;20178;-69
2022/06/12 10:47:45;;;;;;;2.03;1.20;;;32.10;29.40;;;;;;6159365;28;20435;-69
2022/06/12 10:50:55;;;;;;;1.92;1.10;;;32.40;29.10;;;;;;6174249;28;20141;-69
2022/06/12 10:54:23;;;;;;;1.70;1.00;;;32.80;28.90;;;;;;6156574;28;20035;-71
2022/06/12 10:57:37;;;;;;;1.63;1.08;;;33.00;28.30;;;;;;6086939;29;20044;-70
2022/06/12 11:00:44;;;;;;;1.60;1.00;;;33.20;28.10;;;;;;6100489;29;20429;-69
2022/06/12 11:03:55;;;;;;;1.50;1.05;;;33.40;27.80;;;;;;6102152;29;20024;-69
2022/06/12 11:07:12;;;;;;;2.83;1.23;;;33.80;27.10;;;;;;6096836;29;20028;-69
2022/06/12 11:10:38;;;;;;;1.63;1.00;;;34.20;26.60;;;;;;6083329;29;20039;-69
2022/06/12 11:14:04;;;;;;;5.03;1.42;;;34.30;26.40;;;;;;6104567;29;20036;-71
2022/06/12 11:17:23;;;;;;;3.00;1.33;;;34.50;26.40;;;;;;6126546;29;20032;-69
2022/06/12 11:20:24;;;;;;;2.33;1.20;;;34.70;26.40;;;;;;6100932;29;20343;-69
2022/06/12 11:23:52;;;;;;;1.50;1.10;;;35.10;26.20;;;;;;6120801;29;20031;-70
2022/06/12 11:27:16;;;;;;;2.55;1.20;;;35.50;25.70;;;;;;6117867;29;20040;-69
2022/06/12 11:30:30;;;;;;;1.10;1.00;;;36.30;25.10;;;;;;6121512;29;20130;-70
2022/06/12 11:34:06;;;;;;;2.05;1.13;;;36.90;24.60;;;;;;6148100;28;20433;-70
2022/06/12 11:37:25;;;;;;;1.10;1.00;;;37.20;24.20;;;;;;6190051;28;20044;-71
2022/06/12 11:40:44;;;;;;;1.38;1.20;;;37.50;24.10;;;;;;6184098;28;20030;-70
2022/06/12 11:44:08;;;;;;;3.30;1.73;;;37.70;23.90;;;;;;6202510;28;20037;-70
2022/06/12 11:47:50;;;;;;;2.00;1.20;;;37.90;23.80;;;;;;6178557;28;20066;-70
2022/06/12 11:51:08;;;;;;;1.48;1.10;;;38.30;23.40;;;;;;6131842;28;20066;-71
2022/06/12 11:54:27;;;;;;;2.60;1.00;;;39.10;22.70;;;;;;6125046;28;20047;-70
2022/06/12 11:57:42;;;;;;;1.27;1.00;;;39.40;22.10;;;;;;6148349;28;20039;-71
2022/06/12 12:01:01;;;;;;;1.63;1.15;;;39.40;21.90;;;;;;6144343;28;20047;-70
2022/06/12 12:04:37;;;;;;;2.22;1.00;;;39.70;21.70;;;;;;6153339;28;20079;-70
2022/06/12 12:07:57;;;;;;;1.30;1.00;;;40.10;21.50;;;;;;6133075;28;20039;-70
2022/06/12 12:11:13;;;;;;;2.03;1.20;;;40.30;21.50;;;;;;6133443;28;20386;-70
2022/06/12 12:14:23;;;;;;;4.43;1.40;;;40.70;21.30;;;;;;6125272;28;20043;-70
2022/06/12 12:17:29;;;;;;;3.97;1.40;;;41.00;21.10;;;;;;6133235;28;20411;-71
2022/06/12 12:20:42;;;;;;;1.50;0.97;;;41.20;20.80;;;;;;6150995;28;20990;-70
2022/06/12 12:23:46;;;;;;;1.63;0.98;;;41.50;20.50;;;;;;6154641;28;20035;-71
2022/06/12 12:26:49;;;;;;;1.35;1.20;;;41.80;20.30;;;;;;6156317;28;20093;-71
2022/06/12 12:29:52;;;;;;;1.27;1.10;;;42.20;20.20;;;;;;6154623;28;20030;-71
2022/06/12 12:32:57;;;;;;;1.95;1.10;;;42.20;20.30;;;;;;6161296;28;20050;-71
2022/06/12 12:43:13;;;;;;;1.25;0.90;;;42.80;20.00;;;;;;6198619;28;20041;-71
2022/06/12 12:46:14;;;;;;;0.80;0.80;;;43.10;19.70;;;;;;6201715;28;20031;-72
2022/06/12 12:49:34;;;;;;;1.45;1.00;;;43.10;19.60;;;;;;6202774;28;20037;-71
2022/06/12 12:52:53;;;;;;;1.00;0.95;;;43.30;19.60;;;;;;6189259;28;20053;-71
2022/06/12 12:56:13;;;;;;;3.08;1.30;;;43.60;19.40;;;;;;6198187;28;20083;-71
2022/06/12 12:59:14;;;;;;;1.90;1.00;;;43.90;19.00;;;;;;6197188;28;20018;-71
2022/06/12 13:02:27;;;;;;;1.90;0.95;;;44.30;18.10;;;;;;6185089;28;20069;-71
2022/06/12 13:06:05;;;;;;;2.60;1.08;;;44.60;17.60;;;;;;6201579;28;20085;-71
2022/06/12 13:09:06;;;;;;;1.58;0.90;;;45.20;17.20;;;;;;6186633;28;20478;-71
2022/06/12 13:12:34;;;;;;;1.10;0.80;;;45.70;16.80;;;;;;6185642;28;20026;-70
2022/06/12 13:15:52;;;;;;;1.25;1.08;;;46.50;16.30;;;;;;6197391;28;20098;-70
2022/06/12 13:19:15;;;;;;;0.80;0.80;;;47.10;15.80;;;;;;6207999;28;20030;-71
2022/06/12 13:22:33;;;;;;;2.53;1.08;;;47.80;15.40;;;;;;6201992;28;20081;-71
2022/06/12 13:25:39;;;;;;;1.02;0.93;;;48.50;15.00;;;;;;6195302;28;20042;-70
2022/06/12 13:28:41;;;;;;;0.97;0.70;;;49.10;14.80;;;;;;6200005;28;20539;-71
2022/06/12 13:31:53;;;;;;;4.80;1.63;;;49.60;15.00;;;;;;6190341;28;20030;-70
2022/06/12 13:35:16;;;;;;;4.70;1.23;;;50.20;14.10;;;;;;6177272;28;20436;-71
2022/06/12 13:38:22;;;;;;;2.70;0.98;;;50.70;13.90;;;;;;6183819;28;20041;-71
2022/06/12 13:41:41;;;;;;;1.25;0.90;;;51.20;13.70;;;;;;6182905;28;20018;-71
2022/06/12 13:44:45;;;;;;;3.63;0.82;;;51.60;13.50;;;;;;6198147;28;20085;-71
2022/06/12 13:47:46;;;;;;;1.15;0.80;;;51.70;13.30;;;;;;6199921;28;20449;-72
2022/06/12 13:50:55;;;;;;;2.55;0.90;;;52.10;13.20;;;;;;6199181;28;20028;-71
2022/06/12 13:54:20;;;;;;;1.85;0.70;;;52.10;12.90;;;;;;6193203;28;20347;-72
2022/06/12 13:57:29;;;;;;;1.48;0.80;;;52.50;12.90;;;;;;6189488;28;20030;-71
2022/06/12 14:00:33;;;;;;;0.88;0.80;;;52.90;12.60;;;;;;6193340;28;20030;-71
2022/06/12 14:03:45;;;;;;;0.82;0.68;;;53.20;12.30;;;;;;6180893;28;20033;-71
2022/06/12 14:06:47;;;;;;;1.05;0.80;;;53.30;12.20;;;;;;6199620;28;20022;-72
2022/06/12 14:09:52;;;;;;;1.55;0.80;;;53.40;12.00;;;;;;6184820;28;20030;-72
2022/06/12 14:12:53;;;;;;;0.80;0.80;;;53.10;11.30;;;;;;6198227;28;20029;-72
2022/06/12 14:16:07;;;;;;;1.63;0.80;;;53.00;11.40;;;;;;6198412;28;20395;-71
2022/06/12 14:19:09;;;;;;;1.30;0.77;;;53.00;11.00;;;;;;6201894;28;20026;-71
2022/06/12 14:22:17;;;;;;;3.22;0.73;;;53.20;10.80;;;;;;6184289;28;20029;-71
2022/06/12 14:25:36;;;;;;;0.90;0.75;;;53.20;10.90;;;;;;6201912;28;20130;-69
2022/06/12 14:28:37;;;;;;;0.88;0.70;;;53.10;10.80;;;;;;6184844;28;20133;-71
2022/06/12 14:31:39;;;;;;;1.63;1.38;;;51.90;10.80;;;;;;6165402;28;20106;-70
2022/06/12 14:34:42;;;;;;;0.80;0.77;;;50.10;11.50;;;;;;6184599;28;20030;-70
2022/06/12 14:37:43;;;;;;;1.17;0.85;;;49.90;11.70;;;;;;6166379;28;20030;-71
2022/06/12 14:40:45;;;;;;;3.25;0.77;;;49.90;11.60;;;;;;6198684;28;20084;-71
2022/06/12 14:43:50;;;;;;;1.50;1.40;;;50.10;12.20;;;;;;6172013;28;20084;-71
2022/06/12 14:46:51;;;;;;;1.20;0.80;;;50.10;11.80;;;;;;6185080;28;20041;-71
2022/06/12 14:49:53;;;;;;;1.60;0.85;;;49.60;12.00;;;;;;6198054;28;20349;-70
2022/06/12 14:52:53;;;;;;;3.40;0.85;;;49.20;12.30;;;;;;6179576;28;20034;-70
2022/06/12 14:55:58;;;;;;;1.30;0.70;;;49.10;12.60;;;;;;6186372;28;20049;-70
2022/06/12 14:58:59;;;;;;;3.20;0.60;;;48.40;13.00;;;;;;6182960;28;20360;-70
2022/06/12 15:02:01;;;;;;;2.92;0.80;;;47.30;13.80;;;;;;6170852;28;20084;-71
2022/06/12 15:05:09;;;;;;;0.68;0.68;;;46.30;14.30;;;;;;6183048;28;20018;-70
2022/06/12 15:08:10;;;;;;;0.90;0.90;;;45.30;14.90;;;;;;6196951;28;20476;-70
2022/06/12 15:11:17;;;;;;;3.47;0.98;;;44.40;15.50;;;;;;6202392;28;20065;-71
2022/06/12 15:14:18;;;;;;;0.75;0.73;;;43.50;16.10;;;;;;6179315;28;20046;-69
2022/06/12 15:17:20;;;;;;;4.57;0.90;;;42.70;16.50;;;;;;6224207;28;20355;-69
2022/06/12 15:20:21;;;;;;;6.40;1.33;;;42.50;16.80;;;;;;6184581;28;20026;-70
2022/06/12 15:23:24;;;;;;;1.15;0.70;;;42.30;17.00;;;;;;6197132;28;20081;-69
2022/06/12 15:29:47;;;;;;;0.85;0.85;;;41.20;17.70;;;;;;6198430;28;20077;-70
2022/06/12 15:32:48;;;;;;;1.48;0.90;;;40.80;17.90;;;;;;6182468;28;20037;-70
2022/06/12 15:35:49;;;;;;;1.63;0.95;;;40.50;18.10;;;;;;6181271;28;20034;-69
2022/06/12 15:38:50;;;;;;;0.70;0.70;;;40.30;18.30;;;;;;6204347;28;20391;-70
2022/06/12 15:41:51;;;;;;;2.63;1.08;;;40.00;18.50;;;;;;6174719;28;20068;-70
2022/06/12 15:44:52;;;;;;;0.90;0.90;;;39.70;18.70;;;;;;6182086;28;20447;-69
2022/06/12 15:47:53;;;;;;;1.23;0.77;;;39.30;18.90;;;;;;6197117;28;20065;-70
2022/06/12 15:50:54;;;;;;;1.23;1.00;;;39.00;19.30;;;;;;6180598;28;20022;-70
2022/06/12 15:53:56;;;;;;;2.13;1.10;;;38.60;19.60;;;;;;6185077;28;20034;-70
2022/06/12 15:56:58;;;;;;;1.38;1.27;;;38.50;19.80;;;;;;6168540;28;20034;-70
2022/06/12 15:59:58;;;;;;;1.60;1.20;;;38.30;19.90;;;;;;6163005;28;20030;-70
2022/06/12 16:02:59;;;;;;;1.40;0.80;;;38.40;19.70;;;;;;6184081;28;20033;-70
2022/06/12 16:06:00;;;;;;;2.03;0.90;;;38.70;19.40;;;;;;6182200;28;20033;-70
2022/06/12 16:09:01;;;;;;;4.15;0.85;;;39.10;19.10;;;;;;6180888;28;20030;-70
2022/06/12 16:12:02;;;;;;;1.85;0.80;;;39.80;18.60;;;;;;6179499;28;20026;-71
2022/06/12 16:15:04;;;;;;;1.98;1.10;;;40.40;18.20;;;;;;6181833;28;20364;-71
2022/06/12 16:18:05;;;;;;;1.73;0.75;;;40.30;18.20;;;;;;6180947;28;20521;-71
2022/06/12 16:21:06;;;;;;;1.27;0.75;;;39.90;18.50;;;;;;6177534;28;20040;-72
2022/06/12 16:24:08;;;;;;;1.48;0.80;;;39.30;18.90;;;;;;6196009;28;20026;-74
2022/06/12 16:27:09;;;;;;;1.85;0.80;;;38.80;19.40;;;;;;6178866;28;20467;-70
2022/06/12 16:30:13;;;;;;;5.95;1.00;;;38.30;19.70;;;;;;6180787;28;20045;-70
2022/06/12 16:33:17;;;;;;;2.25;0.68;;;37.90;20.00;;;;;;6179798;28;20041;-70
2022/06/12 16:36:18;;;;;;;1.15;0.80;;;37.50;20.20;;;;;;6192043;28;20037;-70
2022/06/12 16:39:19;;;;;;;1.80;1.10;;;37.20;20.40;;;;;;6196474;28;20459;-69
2022/06/12 16:42:20;;;;;;;1.30;0.85;;;37.00;20.50;;;;;;6196702;28;20049;-70